sensor_id;sensor_type;location;lat;lon;timestamp;P1;durP1;ratioP1;P2;durP2;ratioP2
33954;SDS011;20233;50.804;7.126;2023-01-24T00:00:17;12.60;;;7.18;;
33954;SDS011;20233;50.804;7.126;2023-01-24T00:02:43;14.00;;;8.43;;
33954;SDS011;20233;50.804;7.126;2023-01-24T00:05:08;11.52;;;7.43;;
33954;SDS011;20233;50.804;7.126;2023-01-24T00:07:34;10.82;;;7.63;;
33954;SDS011;20233;50.804;7.126;2023-01-24T00:09:59;13.82;;;8.63;;
33954;SDS011;20233;50.804;7.126;2023-01-24T00:12:25;11.38;;;7.45;;
33954;SDS011;20233;50.804;7.126;2023-01-24T00:14:50;10.80;;;6.03;;
33954;SDS011;20233;50.804;7.126;2023-01-24T00:17:16;10.15;;;6.40;;
33954;SDS011;20233;50.804;7.126;2023-01-24T00:19:42;11.00;;;6.88;;
33954;SDS011;20233;50.804;7.126;2023-01-24T00:22:07;10.73;;;7.35;;
33954;SDS011;20233;50.804;7.126;2023-01-24T00:24:33;12.80;;;7.55;;
33954;SDS011;20233;50.804;7.126;2023-01-24T00:26:59;10.45;;;6.82;;
33954;SDS011;20233;50.804;7.126;2023-01-24T00:29:25;10.20;;;6.80;;
33954;SDS011;20233;50.804;7.126;2023-01-24T00:31:51;11.00;;;6.85;;
33954;SDS011;20233;50.804;7.126;2023-01-24T00:34:17;12.48;;;7.40;;
33954;SDS011;20233;50.804;7.126;2023-01-24T00:36:42;11.80;;;7.97;;
33954;SDS011;20233;50.804;7.126;2023-01-24T00:39:09;11.48;;;7.10;;
33954;SDS011;20233;50.804;7.126;2023-01-24T00:41:35;9.90;;;6.32;;
33954;SDS011;20233;50.804;7.126;2023-01-24T00:44:01;9.88;;;6.28;;
33954;SDS011;20233;50.804;7.126;2023-01-24T00:46:26;10.15;;;6.78;;
33954;SDS011;20233;50.804;7.126;2023-01-24T00:48:52;10.45;;;7.60;;
33954;SDS011;20233;50.804;7.126;2023-01-24T00:51:17;11.85;;;7.50;;
33954;SDS011;20233;50.804;7.126;2023-01-24T00:53:43;12.05;;;7.65;;
33954;SDS011;20233;50.804;7.126;2023-01-24T00:56:08;12.38;;;8.52;;
33954;SDS011;20233;50.804;7.126;2023-01-24T00:58:34;12.57;;;7.30;;
33954;SDS011;20233;50.804;7.126;2023-01-24T01:00:59;11.35;;;7.28;;
33954;SDS011;20233;50.804;7.126;2023-01-24T01:03:28;10.60;;;7.00;;
33954;SDS011;20233;50.804;7.126;2023-01-24T01:06:13;13.27;;;8.13;;
33954;SDS011;20233;50.804;7.126;2023-01-24T01:08:39;12.55;;;7.68;;
33954;SDS011;20233;50.804;7.126;2023-01-24T01:11:05;11.25;;;7.40;;
33954;SDS011;20233;50.804;7.126;2023-01-24T01:13:31;11.32;;;7.47;;
33954;SDS011;20233;50.804;7.126;2023-01-24T01:16:00;9.52;;;6.03;;
33954;SDS011;20233;50.804;7.126;2023-01-24T01:18:34;11.45;;;6.97;;
33954;SDS011;20233;50.804;7.126;2023-01-24T01:21:01;10.77;;;7.60;;
33954;SDS011;20233;50.804;7.126;2023-01-24T01:23:28;10.27;;;6.85;;
33954;SDS011;20233;50.804;7.126;2023-01-24T01:25:58;10.85;;;6.88;;
33954;SDS011;20233;50.804;7.126;2023-01-24T01:28:24;9.75;;;6.80;;
33954;SDS011;20233;50.804;7.126;2023-01-24T01:30:53;8.73;;;6.43;;
33954;SDS011;20233;50.804;7.126;2023-01-24T01:33:19;8.65;;;6.05;;
33954;SDS011;20233;50.804;7.126;2023-01-24T01:35:47;9.68;;;5.93;;
33954;SDS011;20233;50.804;7.126;2023-01-24T01:38:13;8.13;;;5.45;;
33954;SDS011;20233;50.804;7.126;2023-01-24T01:40:38;9.20;;;6.38;;
33954;SDS011;20233;50.804;7.126;2023-01-24T01:43:05;7.65;;;5.53;;
33954;SDS011;20233;50.804;7.126;2023-01-24T01:45:39;8.80;;;5.63;;
33954;SDS011;20233;50.804;7.126;2023-01-24T01:51:25;7.68;;;5.38;;
33954;SDS011;20233;50.804;7.126;2023-01-24T01:54:00;7.47;;;5.25;;
33954;SDS011;20233;50.804;7.126;2023-01-24T01:56:46;7.65;;;5.18;;
33954;SDS011;20233;50.804;7.126;2023-01-24T01:59:19;8.43;;;5.20;;
33954;SDS011;20233;50.804;7.126;2023-01-24T02:01:49;6.80;;;5.03;;
33954;SDS011;20233;50.804;7.126;2023-01-24T02:04:20;6.28;;;4.63;;
33954;SDS011;20233;50.804;7.126;2023-01-24T02:09:41;8.63;;;6.03;;
33954;SDS011;20233;50.804;7.126;2023-01-24T02:12:09;7.80;;;4.70;;
33954;SDS011;20233;50.804;7.126;2023-01-24T02:14:48;8.85;;;5.13;;
33954;SDS011;20233;50.804;7.126;2023-01-24T02:17:36;9.68;;;5.68;;
33954;SDS011;20233;50.804;7.126;2023-01-24T02:20:18;7.72;;;4.97;;
33954;SDS011;20233;50.804;7.126;2023-01-24T02:28:18;10.32;;;5.32;;
33954;SDS011;20233;50.804;7.126;2023-01-24T02:30:44;8.48;;;4.70;;
33954;SDS011;20233;50.804;7.126;2023-01-24T02:33:10;7.97;;;4.93;;
33954;SDS011;20233;50.804;7.126;2023-01-24T02:35:37;9.20;;;5.53;;
33954;SDS011;20233;50.804;7.126;2023-01-24T02:38:04;6.55;;;4.82;;
33954;SDS011;20233;50.804;7.126;2023-01-24T02:40:31;8.68;;;5.63;;
33954;SDS011;20233;50.804;7.126;2023-01-24T02:43:00;7.72;;;5.07;;
33954;SDS011;20233;50.804;7.126;2023-01-24T02:45:29;7.40;;;4.45;;
33954;SDS011;20233;50.804;7.126;2023-01-24T02:48:00;8.48;;;5.32;;
33954;SDS011;20233;50.804;7.126;2023-01-24T02:50:27;11.02;;;5.53;;
33954;SDS011;20233;50.804;7.126;2023-01-24T02:52:54;7.13;;;4.78;;
33954;SDS011;20233;50.804;7.126;2023-01-24T02:55:38;8.35;;;5.03;;
33954;SDS011;20233;50.804;7.126;2023-01-24T02:58:24;8.95;;;5.43;;
33954;SDS011;20233;50.804;7.126;2023-01-24T03:00:50;8.75;;;5.25;;
33954;SDS011;20233;50.804;7.126;2023-01-24T03:03:16;7.55;;;4.85;;
33954;SDS011;20233;50.804;7.126;2023-01-24T03:05:41;7.90;;;4.88;;
33954;SDS011;20233;50.804;7.126;2023-01-24T03:08:26;8.75;;;5.88;;
33954;SDS011;20233;50.804;7.126;2023-01-24T03:10:53;7.97;;;5.03;;
33954;SDS011;20233;50.804;7.126;2023-01-24T03:13:19;7.38;;;4.47;;
33954;SDS011;20233;50.804;7.126;2023-01-24T03:16:04;7.25;;;4.72;;
33954;SDS011;20233;50.804;7.126;2023-01-24T03:18:49;7.65;;;4.68;;
33954;SDS011;20233;50.804;7.126;2023-01-24T03:21:34;8.20;;;4.65;;
33954;SDS011;20233;50.804;7.126;2023-01-24T03:24:20;8.55;;;4.63;;
33954;SDS011;20233;50.804;7.126;2023-01-24T03:27:05;8.35;;;4.95;;
33954;SDS011;20233;50.804;7.126;2023-01-24T03:29:49;8.77;;;5.85;;
33954;SDS011;20233;50.804;7.126;2023-01-24T03:32:34;6.75;;;4.32;;
33954;SDS011;20233;50.804;7.126;2023-01-24T03:35:18;8.10;;;4.25;;
33954;SDS011;20233;50.804;7.126;2023-01-24T03:37:43;6.78;;;4.60;;
33954;SDS011;20233;50.804;7.126;2023-01-24T03:40:27;8.27;;;4.57;;
33954;SDS011;20233;50.804;7.126;2023-01-24T03:42:53;8.70;;;4.90;;
33954;SDS011;20233;50.804;7.126;2023-01-24T03:45:25;7.22;;;5.07;;
33954;SDS011;20233;50.804;7.126;2023-01-24T03:47:53;8.23;;;5.18;;
33954;SDS011;20233;50.804;7.126;2023-01-24T03:50:27;7.47;;;5.25;;
33954;SDS011;20233;50.804;7.126;2023-01-24T03:53:14;6.78;;;4.70;;
33954;SDS011;20233;50.804;7.126;2023-01-24T03:55:41;8.77;;;5.07;;
33954;SDS011;20233;50.804;7.126;2023-01-24T03:58:07;7.53;;;5.03;;
33954;SDS011;20233;50.804;7.126;2023-01-24T04:00:33;7.10;;;4.85;;
33954;SDS011;20233;50.804;7.126;2023-01-24T04:02:59;8.35;;;5.63;;
33954;SDS011;20233;50.804;7.126;2023-01-24T04:05:25;7.93;;;4.88;;
33954;SDS011;20233;50.804;7.126;2023-01-24T04:07:52;6.70;;;4.90;;
33954;SDS011;20233;50.804;7.126;2023-01-24T04:10:18;8.27;;;5.05;;
33954;SDS011;20233;50.804;7.126;2023-01-24T04:12:44;8.68;;;5.95;;
33954;SDS011;20233;50.804;7.126;2023-01-24T04:15:13;9.45;;;5.88;;
33954;SDS011;20233;50.804;7.126;2023-01-24T04:17:41;7.82;;;5.32;;
33954;SDS011;20233;50.804;7.126;2023-01-24T04:20:07;9.18;;;5.88;;
33954;SDS011;20233;50.804;7.126;2023-01-24T04:22:33;8.80;;;5.30;;
33954;SDS011;20233;50.804;7.126;2023-01-24T04:24:58;8.40;;;6.53;;
33954;SDS011;20233;50.804;7.126;2023-01-24T04:27:24;7.15;;;4.72;;
33954;SDS011;20233;50.804;7.126;2023-01-24T04:29:49;6.57;;;4.90;;
33954;SDS011;20233;50.804;7.126;2023-01-24T04:32:15;7.55;;;4.90;;
33954;SDS011;20233;50.804;7.126;2023-01-24T04:34:42;7.03;;;5.10;;
33954;SDS011;20233;50.804;7.126;2023-01-24T04:37:08;9.10;;;5.85;;
33954;SDS011;20233;50.804;7.126;2023-01-24T04:39:33;8.65;;;5.28;;
33954;SDS011;20233;50.804;7.126;2023-01-24T04:41:59;8.75;;;5.47;;
33954;SDS011;20233;50.804;7.126;2023-01-24T04:44:24;7.55;;;5.30;;
33954;SDS011;20233;50.804;7.126;2023-01-24T04:46:50;9.40;;;6.40;;
33954;SDS011;20233;50.804;7.126;2023-01-24T04:49:15;8.55;;;5.60;;
33954;SDS011;20233;50.804;7.126;2023-01-24T04:51:45;8.15;;;5.35;;
33954;SDS011;20233;50.804;7.126;2023-01-24T04:54:12;8.02;;;5.53;;
33954;SDS011;20233;50.804;7.126;2023-01-24T04:56:38;7.90;;;5.70;;
33954;SDS011;20233;50.804;7.126;2023-01-24T04:59:03;7.95;;;5.47;;
33954;SDS011;20233;50.804;7.126;2023-01-24T05:01:29;8.93;;;5.05;;
33954;SDS011;20233;50.804;7.126;2023-01-24T05:03:55;7.28;;;4.97;;
33954;SDS011;20233;50.804;7.126;2023-01-24T05:06:24;9.15;;;6.13;;
33954;SDS011;20233;50.804;7.126;2023-01-24T05:08:51;8.43;;;5.53;;
33954;SDS011;20233;50.804;7.126;2023-01-24T05:11:17;8.23;;;5.88;;
33954;SDS011;20233;50.804;7.126;2023-01-24T05:13:42;8.10;;;6.20;;
33954;SDS011;20233;50.804;7.126;2023-01-24T05:16:09;9.75;;;6.38;;
33954;SDS011;20233;50.804;7.126;2023-01-24T05:18:35;8.20;;;5.90;;
33954;SDS011;20233;50.804;7.126;2023-01-24T05:21:04;6.72;;;5.10;;
33954;SDS011;20233;50.804;7.126;2023-01-24T05:23:31;10.00;;;6.50;;
33954;SDS011;20233;50.804;7.126;2023-01-24T05:26:02;9.48;;;6.05;;
33954;SDS011;20233;50.804;7.126;2023-01-24T05:28:28;8.57;;;5.70;;
33954;SDS011;20233;50.804;7.126;2023-01-24T05:30:58;8.43;;;5.80;;
33954;SDS011;20233;50.804;7.126;2023-01-24T05:33:28;7.28;;;5.32;;
33954;SDS011;20233;50.804;7.126;2023-01-24T05:36:01;7.93;;;5.38;;
33954;SDS011;20233;50.804;7.126;2023-01-24T05:38:29;8.70;;;5.88;;
33954;SDS011;20233;50.804;7.126;2023-01-24T05:41:02;8.07;;;5.10;;
33954;SDS011;20233;50.804;7.126;2023-01-24T05:43:29;8.35;;;5.10;;
33954;SDS011;20233;50.804;7.126;2023-01-24T05:46:28;8.00;;;5.50;;
33954;SDS011;20233;50.804;7.126;2023-01-24T05:48:48;8.77;;;5.65;;
33954;SDS011;20233;50.804;7.126;2023-01-24T05:51:15;9.20;;;6.40;;
33954;SDS011;20233;50.804;7.126;2023-01-24T05:53:42;7.88;;;5.47;;
33954;SDS011;20233;50.804;7.126;2023-01-24T05:56:18;6.40;;;4.07;;
33954;SDS011;20233;50.804;7.126;2023-01-24T05:58:44;6.35;;;4.65;;
33954;SDS011;20233;50.804;7.126;2023-01-24T06:01:13;5.88;;;4.30;;
33954;SDS011;20233;50.804;7.126;2023-01-24T06:06:10;7.47;;;5.00;;
33954;SDS011;20233;50.804;7.126;2023-01-24T06:08:38;10.05;;;5.97;;
33954;SDS011;20233;50.804;7.126;2023-01-24T06:11:05;6.72;;;5.28;;
33954;SDS011;20233;50.804;7.126;2023-01-24T06:13:32;7.35;;;5.03;;
33954;SDS011;20233;50.804;7.126;2023-01-24T06:16:02;7.82;;;5.47;;
33954;SDS011;20233;50.804;7.126;2023-01-24T06:18:29;8.85;;;5.57;;
33954;SDS011;20233;50.804;7.126;2023-01-24T06:20:55;7.15;;;4.90;;
33954;SDS011;20233;50.804;7.126;2023-01-24T06:23:25;8.40;;;5.68;;
33954;SDS011;20233;50.804;7.126;2023-01-24T06:25:54;8.38;;;5.65;;
33954;SDS011;20233;50.804;7.126;2023-01-24T06:28:22;9.18;;;5.85;;
33954;SDS011;20233;50.804;7.126;2023-01-24T06:36:29;6.85;;;5.18;;
33954;SDS011;20233;50.804;7.126;2023-01-24T06:39:02;7.15;;;5.13;;
33954;SDS011;20233;50.804;7.126;2023-01-24T06:41:28;7.50;;;5.53;;
33954;SDS011;20233;50.804;7.126;2023-01-24T06:43:54;9.27;;;5.35;;
33954;SDS011;20233;50.804;7.126;2023-01-24T06:46:20;7.72;;;5.47;;
33954;SDS011;20233;50.804;7.126;2023-01-24T06:48:45;8.18;;;5.10;;
33954;SDS011;20233;50.804;7.126;2023-01-24T06:51:12;7.97;;;5.30;;
33954;SDS011;20233;50.804;7.126;2023-01-24T06:53:41;7.57;;;5.03;;
33954;SDS011;20233;50.804;7.126;2023-01-24T06:56:07;8.55;;;5.75;;
33954;SDS011;20233;50.804;7.126;2023-01-24T06:58:33;7.05;;;4.82;;
33954;SDS011;20233;50.804;7.126;2023-01-24T07:00:59;7.13;;;4.88;;
33954;SDS011;20233;50.804;7.126;2023-01-24T07:03:24;7.90;;;5.95;;
33954;SDS011;20233;50.804;7.126;2023-01-24T07:05:50;8.43;;;5.60;;
33954;SDS011;20233;50.804;7.126;2023-01-24T07:08:15;9.52;;;6.20;;
33954;SDS011;20233;50.804;7.126;2023-01-24T07:10:44;7.25;;;4.80;;
33954;SDS011;20233;50.804;7.126;2023-01-24T07:13:10;7.85;;;5.65;;
33954;SDS011;20233;50.804;7.126;2023-01-24T07:15:36;8.30;;;5.45;;
33954;SDS011;20233;50.804;7.126;2023-01-24T07:18:08;8.63;;;5.60;;
33954;SDS011;20233;50.804;7.126;2023-01-24T07:20:35;8.20;;;5.65;;
33954;SDS011;20233;50.804;7.126;2023-01-24T07:23:01;9.40;;;5.78;;
33954;SDS011;20233;50.804;7.126;2023-01-24T07:25:27;8.05;;;5.50;;
33954;SDS011;20233;50.804;7.126;2023-01-24T07:27:55;10.27;;;6.00;;
33954;SDS011;20233;50.804;7.126;2023-01-24T07:30:22;11.60;;;6.38;;
33954;SDS011;20233;50.804;7.126;2023-01-24T07:32:48;12.93;;;6.78;;
33954;SDS011;20233;50.804;7.126;2023-01-24T07:35:15;8.05;;;5.68;;
33954;SDS011;20233;50.804;7.126;2023-01-24T07:37:40;7.82;;;5.63;;
33954;SDS011;20233;50.804;7.126;2023-01-24T07:40:06;9.07;;;5.72;;
33954;SDS011;20233;50.804;7.126;2023-01-24T07:42:32;8.10;;;5.57;;
33954;SDS011;20233;50.804;7.126;2023-01-24T07:44:58;7.68;;;5.05;;
33954;SDS011;20233;50.804;7.126;2023-01-24T07:47:24;7.88;;;5.95;;
33954;SDS011;20233;50.804;7.126;2023-01-24T07:49:51;7.05;;;4.70;;
33954;SDS011;20233;50.804;7.126;2023-01-24T07:52:17;7.43;;;5.65;;
33954;SDS011;20233;50.804;7.126;2023-01-24T07:54:43;7.75;;;5.40;;
33954;SDS011;20233;50.804;7.126;2023-01-24T07:57:08;7.18;;;5.13;;
33954;SDS011;20233;50.804;7.126;2023-01-24T07:59:34;6.63;;;4.80;;
33954;SDS011;20233;50.804;7.126;2023-01-24T08:02:00;8.02;;;5.22;;
33954;SDS011;20233;50.804;7.126;2023-01-24T08:04:26;10.13;;;6.00;;
33954;SDS011;20233;50.804;7.126;2023-01-24T08:06:52;7.78;;;5.38;;
33954;SDS011;20233;50.804;7.126;2023-01-24T08:09:36;9.18;;;4.90;;
33954;SDS011;20233;50.804;7.126;2023-01-24T08:12:02;10.70;;;5.72;;
33954;SDS011;20233;50.804;7.126;2023-01-24T08:14:28;10.55;;;5.78;;
33954;SDS011;20233;50.804;7.126;2023-01-24T08:16:53;8.45;;;5.80;;
33954;SDS011;20233;50.804;7.126;2023-01-24T08:19:18;9.15;;;5.95;;
33954;SDS011;20233;50.804;7.126;2023-01-24T08:21:44;8.13;;;5.57;;
33954;SDS011;20233;50.804;7.126;2023-01-24T08:24:10;6.95;;;5.72;;
33954;SDS011;20233;50.804;7.126;2023-01-24T08:26:38;7.95;;;6.00;;
33954;SDS011;20233;50.804;7.126;2023-01-24T08:29:15;7.35;;;4.63;;
33954;SDS011;20233;50.804;7.126;2023-01-24T08:31:40;8.68;;;5.32;;
33954;SDS011;20233;50.804;7.126;2023-01-24T08:34:08;6.68;;;4.95;;
33954;SDS011;20233;50.804;7.126;2023-01-24T08:36:35;6.10;;;4.65;;
33954;SDS011;20233;50.804;7.126;2023-01-24T08:39:02;6.18;;;4.00;;
33954;SDS011;20233;50.804;7.126;2023-01-24T08:41:29;6.53;;;4.95;;
33954;SDS011;20233;50.804;7.126;2023-01-24T08:43:56;7.00;;;4.05;;
33954;SDS011;20233;50.804;7.126;2023-01-24T08:46:23;6.18;;;4.57;;
33954;SDS011;20233;50.804;7.126;2023-01-24T08:48:51;8.23;;;6.10;;
33954;SDS011;20233;50.804;7.126;2023-01-24T08:51:18;8.98;;;5.38;;
33954;SDS011;20233;50.804;7.126;2023-01-24T08:53:44;7.63;;;5.55;;
33954;SDS011;20233;50.804;7.126;2023-01-24T08:56:12;7.05;;;4.95;;
33954;SDS011;20233;50.804;7.126;2023-01-24T08:58:38;6.20;;;4.55;;
33954;SDS011;20233;50.804;7.126;2023-01-24T09:01:07;8.15;;;5.63;;
33954;SDS011;20233;50.804;7.126;2023-01-24T09:03:34;6.15;;;4.47;;
33954;SDS011;20233;50.804;7.126;2023-01-24T09:06:02;6.68;;;5.47;;
33954;SDS011;20233;50.804;7.126;2023-01-24T09:08:30;6.25;;;4.95;;
33954;SDS011;20233;50.804;7.126;2023-01-24T09:10:57;5.68;;;4.38;;
33954;SDS011;20233;50.804;7.126;2023-01-24T09:13:25;6.57;;;4.53;;
33954;SDS011;20233;50.804;7.126;2023-01-24T09:15:51;5.70;;;4.22;;
33954;SDS011;20233;50.804;7.126;2023-01-24T09:18:19;5.95;;;3.60;;
33954;SDS011;20233;50.804;7.126;2023-01-24T09:20:46;5.43;;;4.05;;
33954;SDS011;20233;50.804;7.126;2023-01-24T09:23:13;5.97;;;4.20;;
33954;SDS011;20233;50.804;7.126;2023-01-24T09:25:41;5.95;;;4.18;;
33954;SDS011;20233;50.804;7.126;2023-01-24T09:28:14;6.90;;;4.30;;
33954;SDS011;20233;50.804;7.126;2023-01-24T09:30:41;6.90;;;4.57;;
33954;SDS011;20233;50.804;7.126;2023-01-24T09:33:08;6.90;;;4.05;;
33954;SDS011;20233;50.804;7.126;2023-01-24T09:35:34;7.00;;;4.82;;
33954;SDS011;20233;50.804;7.126;2023-01-24T09:38:01;8.55;;;4.80;;
33954;SDS011;20233;50.804;7.126;2023-01-24T09:40:42;7.53;;;4.80;;
33954;SDS011;20233;50.804;7.126;2023-01-24T09:48:39;7.60;;;5.00;;
33954;SDS011;20233;50.804;7.126;2023-01-24T09:51:13;10.18;;;5.22;;
33954;SDS011;20233;50.804;7.126;2023-01-24T09:53:51;6.40;;;5.10;;
33954;SDS011;20233;50.804;7.126;2023-01-24T09:56:22;7.00;;;4.63;;
33954;SDS011;20233;50.804;7.126;2023-01-24T10:01:43;6.82;;;5.03;;
33954;SDS011;20233;50.804;7.126;2023-01-24T10:04:21;9.95;;;5.38;;
33954;SDS011;20233;50.804;7.126;2023-01-24T10:07:05;6.97;;;4.28;;
33954;SDS011;20233;50.804;7.126;2023-01-24T10:12:28;7.05;;;4.43;;
33954;SDS011;20233;50.804;7.126;2023-01-24T10:15:46;6.82;;;4.57;;
33954;SDS011;20233;50.804;7.126;2023-01-24T10:23:27;7.82;;;5.07;;
33954;SDS011;20233;50.804;7.126;2023-01-24T10:29:20;7.70;;;5.72;;
33954;SDS011;20233;50.804;7.126;2023-01-24T10:31:56;9.57;;;8.00;;
33954;SDS011;20233;50.804;7.126;2023-01-24T10:34:56;6.95;;;5.75;;
33954;SDS011;20233;50.804;7.126;2023-01-24T10:37:45;7.95;;;5.75;;
33954;SDS011;20233;50.804;7.126;2023-01-24T10:40:21;6.00;;;4.53;;
33954;SDS011;20233;50.804;7.126;2023-01-24T10:42:53;6.82;;;5.00;;
33954;SDS011;20233;50.804;7.126;2023-01-24T10:45:40;8.50;;;5.22;;
33954;SDS011;20233;50.804;7.126;2023-01-24T10:50:50;9.15;;;6.18;;
33954;SDS011;20233;50.804;7.126;2023-01-24T10:53:24;8.40;;;4.43;;
33954;SDS011;20233;50.804;7.126;2023-01-24T10:55:59;7.35;;;4.88;;
33954;SDS011;20233;50.804;7.126;2023-01-24T10:58:39;7.75;;;5.20;;
33954;SDS011;20233;50.804;7.126;2023-01-24T11:04:22;6.80;;;4.30;;
33954;SDS011;20233;50.804;7.126;2023-01-24T11:06:53;6.82;;;4.97;;
33954;SDS011;20233;50.804;7.126;2023-01-24T11:09:21;7.38;;;5.38;;
33954;SDS011;20233;50.804;7.126;2023-01-24T11:11:55;13.40;;;11.93;;
33954;SDS011;20233;50.804;7.126;2023-01-24T11:14:25;7.97;;;5.88;;
33954;SDS011;20233;50.804;7.126;2023-01-24T11:16:54;7.38;;;5.50;;
33954;SDS011;20233;50.804;7.126;2023-01-24T11:21:56;6.97;;;5.18;;
33954;SDS011;20233;50.804;7.126;2023-01-24T11:24:24;9.25;;;6.22;;
33954;SDS011;20233;50.804;7.126;2023-01-24T11:29:28;9.32;;;5.75;;
33954;SDS011;20233;50.804;7.126;2023-01-24T11:31:59;7.80;;;6.18;;
33954;SDS011;20233;50.804;7.126;2023-01-24T11:34:58;7.00;;;5.50;;
33954;SDS011;20233;50.804;7.126;2023-01-24T11:57:00;7.78;;;5.70;;
33954;SDS011;20233;50.804;7.126;2023-01-24T11:59:39;6.93;;;5.45;;
33954;SDS011;20233;50.804;7.126;2023-01-24T12:13:44;7.25;;;5.25;;
33954;SDS011;20233;50.804;7.126;2023-01-24T12:16:26;9.15;;;6.32;;
33954;SDS011;20233;50.804;7.126;2023-01-24T12:21:54;8.32;;;6.30;;
33954;SDS011;20233;50.804;7.126;2023-01-24T12:24:37;10.15;;;6.35;;
33954;SDS011;20233;50.804;7.126;2023-01-24T12:27:18;8.80;;;5.85;;
33954;SDS011;20233;50.804;7.126;2023-01-24T12:43:32;7.93;;;6.22;;
33954;SDS011;20233;50.804;7.126;2023-01-24T12:55:00;13.52;;;7.85;;
33954;SDS011;20233;50.804;7.126;2023-01-24T12:57:41;9.27;;;5.70;;
33954;SDS011;20233;50.804;7.126;2023-01-24T13:00:19;7.57;;;5.63;;
33954;SDS011;20233;50.804;7.126;2023-01-24T13:05:37;9.00;;;6.13;;
33954;SDS011;20233;50.804;7.126;2023-01-24T13:11:00;11.02;;;6.93;;
33954;SDS011;20233;50.804;7.126;2023-01-24T13:25:33;10.10;;;6.80;;
33954;SDS011;20233;50.804;7.126;2023-01-24T13:33:48;10.65;;;8.20;;
33954;SDS011;20233;50.804;7.126;2023-01-24T13:36:28;8.77;;;7.13;;
33954;SDS011;20233;50.804;7.126;2023-01-24T13:39:00;8.18;;;6.03;;
33954;SDS011;20233;50.804;7.126;2023-01-24T13:51:54;10.63;;;6.30;;
33954;SDS011;20233;50.804;7.126;2023-01-24T14:05:42;10.73;;;6.85;;
33954;SDS011;20233;50.804;7.126;2023-01-24T14:19:42;9.68;;;6.63;;
33954;SDS011;20233;50.804;7.126;2023-01-24T14:27:59;10.45;;;6.82;;
33954;SDS011;20233;50.804;7.126;2023-01-24T14:30:27;9.50;;;6.72;;
33954;SDS011;20233;50.804;7.126;2023-01-24T14:33:03;7.93;;;6.15;;
33954;SDS011;20233;50.804;7.126;2023-01-24T14:38:30;9.35;;;6.80;;
33954;SDS011;20233;50.804;7.126;2023-01-24T14:40:57;9.48;;;7.38;;
33954;SDS011;20233;50.804;7.126;2023-01-24T14:43:36;10.18;;;6.80;;
33954;SDS011;20233;50.804;7.126;2023-01-24T14:46:37;9.02;;;6.88;;
33954;SDS011;20233;50.804;7.126;2023-01-24T14:48:57;8.00;;;6.10;;
33954;SDS011;20233;50.804;7.126;2023-01-24T14:51:24;9.27;;;6.15;;
33954;SDS011;20233;50.804;7.126;2023-01-24T14:53:54;10.60;;;7.00;;
33954;SDS011;20233;50.804;7.126;2023-01-24T14:56:20;8.82;;;7.00;;
33954;SDS011;20233;50.804;7.126;2023-01-24T14:58:47;17.98;;;8.05;;
33954;SDS011;20233;50.804;7.126;2023-01-24T15:01:23;8.50;;;6.22;;
33954;SDS011;20233;50.804;7.126;2023-01-24T15:03:53;8.65;;;6.70;;
33954;SDS011;20233;50.804;7.126;2023-01-24T15:06:22;11.35;;;7.47;;
33954;SDS011;20233;50.804;7.126;2023-01-24T15:08:55;11.10;;;7.63;;
33954;SDS011;20233;50.804;7.126;2023-01-24T15:11:34;9.82;;;6.75;;
33954;SDS011;20233;50.804;7.126;2023-01-24T15:14:04;11.73;;;7.80;;
33954;SDS011;20233;50.804;7.126;2023-01-24T15:16:38;11.07;;;8.30;;
33954;SDS011;20233;50.804;7.126;2023-01-24T15:19:21;10.80;;;7.20;;
33954;SDS011;20233;50.804;7.126;2023-01-24T15:21:54;12.10;;;7.57;;
33954;SDS011;20233;50.804;7.126;2023-01-24T15:24:24;14.27;;;7.38;;
33954;SDS011;20233;50.804;7.126;2023-01-24T15:29:46;9.48;;;6.63;;
33954;SDS011;20233;50.804;7.126;2023-01-24T15:38:50;9.63;;;7.38;;
33954;SDS011;20233;50.804;7.126;2023-01-24T15:41:16;9.95;;;7.70;;
33954;SDS011;20233;50.804;7.126;2023-01-24T15:43:49;11.23;;;7.47;;
33954;SDS011;20233;50.804;7.126;2023-01-24T15:46:31;10.43;;;6.93;;
33954;SDS011;20233;50.804;7.126;2023-01-24T15:54:41;9.90;;;7.78;;
33954;SDS011;20233;50.804;7.126;2023-01-24T15:59:42;11.50;;;8.00;;
33954;SDS011;20233;50.804;7.126;2023-01-24T16:02:13;11.98;;;7.88;;
33954;SDS011;20233;50.804;7.126;2023-01-24T16:04:40;15.75;;;12.57;;
33954;SDS011;20233;50.804;7.126;2023-01-24T16:07:10;12.68;;;10.05;;
33954;SDS011;20233;50.804;7.126;2023-01-24T16:09:37;10.45;;;8.02;;
33954;SDS011;20233;50.804;7.126;2023-01-24T16:12:04;10.93;;;7.38;;
33954;SDS011;20233;50.804;7.126;2023-01-24T16:14:36;12.98;;;8.10;;
33954;SDS011;20233;50.804;7.126;2023-01-24T16:17:07;14.18;;;8.82;;
33954;SDS011;20233;50.804;7.126;2023-01-24T16:19:35;17.20;;;8.93;;
33954;SDS011;20233;50.804;7.126;2023-01-24T16:22:02;9.40;;;7.22;;
33954;SDS011;20233;50.804;7.126;2023-01-24T16:24:30;11.85;;;8.02;;
33954;SDS011;20233;50.804;7.126;2023-01-24T16:26:57;11.57;;;7.28;;
33954;SDS011;20233;50.804;7.126;2023-01-24T16:29:27;11.13;;;7.38;;
33954;SDS011;20233;50.804;7.126;2023-01-24T16:31:56;12.02;;;8.13;;
33954;SDS011;20233;50.804;7.126;2023-01-24T16:34:24;12.98;;;8.43;;
33954;SDS011;20233;50.804;7.126;2023-01-24T16:36:51;11.60;;;8.18;;
33954;SDS011;20233;50.804;7.126;2023-01-24T16:39:19;12.90;;;8.25;;
33954;SDS011;20233;50.804;7.126;2023-01-24T16:41:47;11.77;;;8.68;;
33954;SDS011;20233;50.804;7.126;2023-01-24T16:44:15;12.73;;;8.85;;
33954;SDS011;20233;50.804;7.126;2023-01-24T16:46:49;16.55;;;12.13;;
33954;SDS011;20233;50.804;7.126;2023-01-24T16:49:16;14.82;;;11.10;;
33954;SDS011;20233;50.804;7.126;2023-01-24T16:51:43;13.75;;;9.48;;
33954;SDS011;20233;50.804;7.126;2023-01-24T16:54:11;15.23;;;9.95;;
33954;SDS011;20233;50.804;7.126;2023-01-24T16:56:38;12.15;;;9.65;;
33954;SDS011;20233;50.804;7.126;2023-01-24T16:59:04;12.57;;;8.40;;
33954;SDS011;20233;50.804;7.126;2023-01-24T17:01:31;12.70;;;9.18;;
33954;SDS011;20233;50.804;7.126;2023-01-24T17:03:59;13.27;;;9.25;;
33954;SDS011;20233;50.804;7.126;2023-01-24T17:06:28;11.73;;;8.77;;
33954;SDS011;20233;50.804;7.126;2023-01-24T17:08:55;12.68;;;8.75;;
33954;SDS011;20233;50.804;7.126;2023-01-24T17:11:22;10.85;;;7.57;;
33954;SDS011;20233;50.804;7.126;2023-01-24T17:13:48;11.85;;;7.97;;
33954;SDS011;20233;50.804;7.126;2023-01-24T17:16:16;13.27;;;9.10;;
33954;SDS011;20233;50.804;7.126;2023-01-24T17:18:42;14.68;;;9.98;;
33954;SDS011;20233;50.804;7.126;2023-01-24T17:21:11;13.18;;;8.75;;
33954;SDS011;20233;50.804;7.126;2023-01-24T17:23:38;14.98;;;9.52;;
33954;SDS011;20233;50.804;7.126;2023-01-24T17:26:07;13.45;;;8.98;;
33954;SDS011;20233;50.804;7.126;2023-01-24T17:28:36;12.63;;;9.15;;
33954;SDS011;20233;50.804;7.126;2023-01-24T17:33:36;14.23;;;10.38;;
33954;SDS011;20233;50.804;7.126;2023-01-24T17:36:03;11.88;;;8.88;;
33954;SDS011;20233;50.804;7.126;2023-01-24T17:38:31;13.85;;;9.90;;
33954;SDS011;20233;50.804;7.126;2023-01-24T17:40:58;12.88;;;8.50;;
33954;SDS011;20233;50.804;7.126;2023-01-24T17:43:25;14.48;;;9.93;;
33954;SDS011;20233;50.804;7.126;2023-01-24T17:45:57;14.00;;;9.85;;
33954;SDS011;20233;50.804;7.126;2023-01-24T17:48:26;13.10;;;8.82;;
33954;SDS011;20233;50.804;7.126;2023-01-24T17:50:56;14.63;;;9.93;;
33954;SDS011;20233;50.804;7.126;2023-01-24T17:53:23;13.93;;;10.40;;
33954;SDS011;20233;50.804;7.126;2023-01-24T17:55:53;15.43;;;9.68;;
33954;SDS011;20233;50.804;7.126;2023-01-24T17:58:20;13.77;;;9.82;;
33954;SDS011;20233;50.804;7.126;2023-01-24T18:00:47;13.48;;;9.98;;
33954;SDS011;20233;50.804;7.126;2023-01-24T18:03:17;13.65;;;10.05;;
33954;SDS011;20233;50.804;7.126;2023-01-24T18:05:46;14.73;;;9.65;;
33954;SDS011;20233;50.804;7.126;2023-01-24T18:08:16;15.98;;;10.48;;
33954;SDS011;20233;50.804;7.126;2023-01-24T18:10:43;16.95;;;11.30;;